Time;durP1;ratioP1;P1;durP2;ratioP2;P2;SDS_P1;SDS_P2;PMS_P1;PMS_P2;Temp;Humidity;BMP_temperature;BMP_pressure;BME280_temperature;BME280_humidity;BME280_pressure;Samples;Min_cycle;Max_cycle;Signal;HPM_P1;HPM_P2
2022/08/16 00:01:04;;;;;;;9.70;6.85;;;23.60;62.80;;;;;;5049218;28;20103;-83
2022/08/16 00:03:30;;;;;;;8.88;6.63;;;23.50;62.90;;;;;;5049653;28;20033;-83
2022/08/16 00:05:56;;;;;;;10.10;7.05;;;23.50;63.40;;;;;;5014469;28;20037;-84
2022/08/16 00:08:22;;;;;;;9.52;6.70;;;23.50;62.70;;;;;;5048869;28;20047;-84
2022/08/16 00:10:48;;;;;;;10.43;7.32;;;23.50;62.80;;;;;;5048661;28;20511;-82
2022/08/16 00:13:14;;;;;;;10.18;7.93;;;23.40;62.90;;;;;;5048607;28;20056;-82
2022/08/16 00:15:45;;;;;;;9.30;7.53;;;23.40;63.10;;;;;;5031374;28;20491;-82
2022/08/16 00:18:14;;;;;;;10.88;7.40;;;23.40;63.10;;;;;;5031208;28;20191;-85
2022/08/16 00:20:43;;;;;;;11.48;8.02;;;23.30;63.40;;;;;;5014175;28;20569;-84
2022/08/16 00:23:10;;;;;;;10.82;8.23;;;23.30;63.60;;;;;;5030910;28;20122;-84
2022/08/16 00:25:36;;;;;;;10.40;8.68;;;23.30;63.70;;;;;;5048628;28;20047;-85
2022/08/16 00:28:03;;;;;;;11.00;8.27;;;23.20;63.60;;;;;;5030830;28;20487;-84
2022/08/16 00:30:29;;;;;;;9.52;8.45;;;23.10;63.90;;;;;;5030696;28;20037;-85
2022/08/16 00:32:57;;;;;;;15.35;9.13;;;23.10;64.20;;;;;;5030690;28;20036;-83
2022/08/16 00:35:30;;;;;;;10.40;8.15;;;23.10;64.20;;;;;;5048747;28;20407;-84
2022/08/16 00:37:57;;;;;;;8.80;7.80;;;23.10;63.90;;;;;;5048811;28;20071;-84
2022/08/16 00:40:42;;;;;;;14.15;8.93;;;23.10;63.80;;;;;;5030897;28;20033;-85
2022/08/16 00:43:33;;;;;;;11.00;8.00;;;23.10;64.20;;;;;;5032154;28;20068;-83
2022/08/16 00:46:28;;;;;;;12.05;8.48;;;23.00;63.60;;;;;;5034490;28;20047;-83
2022/08/16 00:48:55;;;;;;;11.30;8.27;;;23.10;63.90;;;;;;5034739;28;20063;-83
2022/08/16 00:51:24;;;;;;;14.18;8.63;;;23.00;64.10;;;;;;5052727;28;20029;-82
2022/08/16 00:53:51;;;;;;;8.60;7.50;;;23.00;63.90;;;;;;5034445;28;20223;-82
2022/08/16 00:56:26;;;;;;;8.73;7.28;;;23.00;63.90;;;;;;5017373;28;20404;-84
2022/08/16 00:58:52;;;;;;;8.80;7.32;;;23.00;63.50;;;;;;5034397;28;20140;-82
2022/08/16 01:01:19;;;;;;;10.07;6.97;;;23.00;63.40;;;;;;5034472;28;20033;-85
2022/08/16 01:03:48;;;;;;;10.80;7.05;;;23.00;63.30;;;;;;5034750;28;20040;-82
2022/08/16 01:06:17;;;;;;;11.82;7.68;;;23.00;63.60;;;;;;5035066;28;20450;-82
2022/08/16 01:08:45;;;;;;;11.02;7.25;;;23.00;63.90;;;;;;5034279;28;20036;-83
2022/08/16 01:11:12;;;;;;;10.75;7.88;;;23.00;63.70;;;;;;5017285;28;20537;-83
2022/08/16 01:13:39;;;;;;;11.15;7.82;;;23.00;63.70;;;;;;5051649;28;20086;-82
2022/08/16 01:16:10;;;;;;;9.05;7.95;;;22.90;63.90;;;;;;5033902;28;20032;-82
2022/08/16 01:18:43;;;;;;;11.23;8.05;;;22.90;63.90;;;;;;5017741;28;20060;-82
2022/08/16 01:21:30;;;;;;;12.88;8.60;;;22.90;64.20;;;;;;5017694;28;20044;-84
2022/08/16 01:24:16;;;;;;;11.98;8.52;;;22.90;64.50;;;;;;5033730;28;20124;-80
2022/08/16 01:26:44;;;;;;;13.60;8.30;;;22.80;64.60;;;;;;5033692;28;20037;-81
2022/08/16 01:29:21;;;;;;;12.15;8.05;;;22.80;64.80;;;;;;5017302;28;20037;-82
2022/08/16 01:31:47;;;;;;;12.02;7.75;;;22.80;64.80;;;;;;5034008;28;20118;-82
2022/08/16 01:34:14;;;;;;;9.40;8.15;;;22.80;64.80;;;;;;5033835;28;20044;-81
2022/08/16 01:36:41;;;;;;;12.40;8.00;;;22.70;64.90;;;;;;5034036;28;20068;-80
2022/08/16 01:39:10;;;;;;;12.75;8.57;;;22.60;65.00;;;;;;5051571;28;20143;-83
2022/08/16 01:41:38;;;;;;;13.05;8.57;;;22.70;65.30;;;;;;5033260;28;20040;-83
2022/08/16 01:44:04;;;;;;;11.40;8.38;;;22.60;65.30;;;;;;5017024;28;20135;-81
2022/08/16 01:46:35;;;;;;;12.15;8.10;;;22.60;65.50;;;;;;5033252;28;20036;-84
2022/08/16 01:49:11;;;;;;;8.98;7.70;;;22.70;65.50;;;;;;5033730;28;20041;-84
2022/08/16 01:51:41;;;;;;;12.25;8.00;;;22.60;65.50;;;;;;5052142;28;20033;-84
2022/08/16 01:54:09;;;;;;;11.52;8.15;;;22.60;65.60;;;;;;5033412;28;20080;-83
2022/08/16 01:56:43;;;;;;;12.27;7.75;;;22.70;65.80;;;;;;5050902;28;20047;-84
2022/08/16 01:59:12;;;;;;;10.10;7.57;;;22.60;65.90;;;;;;5033509;28;20036;-84
2022/08/16 02:01:39;;;;;;;11.32;7.93;;;22.60;66.70;;;;;;5016702;28;20057;-84
2022/08/16 02:04:05;;;;;;;10.85;7.70;;;22.60;66.40;;;;;;5033226;28;20038;-84
2022/08/16 02:06:31;;;;;;;11.88;7.63;;;22.50;66.20;;;;;;5017410;28;20037;-84
2022/08/16 02:08:58;;;;;;;10.38;7.57;;;22.50;66.40;;;;;;5033160;28;20048;-83
2022/08/16 02:11:24;;;;;;;10.30;7.32;;;22.40;66.50;;;;;;5032668;28;20063;-83
2022/08/16 02:13:51;;;;;;;11.18;7.95;;;22.40;66.90;;;;;;5033052;28;20037;-82
2022/08/16 02:16:18;;;;;;;10.50;7.50;;;22.30;66.90;;;;;;5032832;28;20041;-83
2022/08/16 02:18:46;;;;;;;10.15;7.00;;;22.30;67.00;;;;;;5051131;28;20545;-83
2022/08/16 02:21:14;;;;;;;10.48;7.18;;;22.20;67.00;;;;;;5051778;28;20032;-80
2022/08/16 02:23:40;;;;;;;10.73;7.30;;;22.20;67.20;;;;;;5033814;28;20033;-82
2022/08/16 02:26:07;;;;;;;10.82;7.32;;;22.20;67.10;;;;;;5051193;28;20071;-82
2022/08/16 02:28:33;;;;;;;8.85;6.72;;;22.20;67.10;;;;;;5033197;28;20040;-82
2022/08/16 02:31:04;;;;;;;8.95;6.50;;;22.20;67.00;;;;;;5033592;28;20044;-82
2022/08/16 02:33:31;;;;;;;8.43;6.45;;;22.30;66.70;;;;;;5051675;28;20041;-82
2022/08/16 02:35:57;;;;;;;11.10;6.65;;;22.30;66.70;;;;;;5033122;28;20048;-83
2022/08/16 02:38:26;;;;;;;11.00;7.25;;;22.30;66.50;;;;;;5033122;28;20522;-83
2022/08/16 02:40:53;;;;;;;10.35;7.03;;;22.20;66.80;;;;;;5033191;28;20438;-81
2022/08/16 02:43:19;;;;;;;11.13;6.85;;;22.20;67.00;;;;;;5033215;28;20561;-83
2022/08/16 02:45:45;;;;;;;11.73;6.72;;;22.20;67.00;;;;;;5016421;28;20124;-84
2022/08/16 02:48:11;;;;;;;9.60;6.65;;;22.20;67.10;;;;;;5052099;28;20492;-84
2022/08/16 02:50:37;;;;;;;10.43;6.53;;;22.20;67.60;;;;;;5052750;28;20527;-84
2022/08/16 02:53:03;;;;;;;8.88;6.60;;;22.20;67.30;;;;;;5033083;28;20037;-84
2022/08/16 02:55:30;;;;;;;9.73;7.35;;;22.30;67.10;;;;;;5032476;28;20621;-84
2022/08/16 02:57:56;;;;;;;8.65;6.88;;;22.20;66.80;;;;;;5032760;28;20037;-83
2022/08/16 03:00:22;;;;;;;10.40;6.80;;;22.20;67.00;;;;;;5032911;28;20517;-84
2022/08/16 03:02:48;;;;;;;8.18;6.70;;;22.20;66.80;;;;;;5050519;28;20029;-82
2022/08/16 03:05:15;;;;;;;9.80;6.85;;;22.20;66.70;;;;;;5032532;28;20091;-82
2022/08/16 03:07:42;;;;;;;8.82;6.95;;;22.20;66.80;;;;;;5032716;28;20044;-84
2022/08/16 03:10:11;;;;;;;9.15;7.10;;;22.20;66.70;;;;;;5015932;28;20063;-84
2022/08/16 03:12:45;;;;;;;9.43;7.35;;;22.20;67.10;;;;;;5032323;28;20052;-83
2022/08/16 03:15:13;;;;;;;10.48;7.50;;;22.20;67.10;;;;;;5032965;28;20045;-84
2022/08/16 03:17:41;;;;;;;8.75;6.90;;;22.20;66.90;;;;;;5031848;28;20094;-82
2022/08/16 03:20:11;;;;;;;7.43;6.78;;;22.30;67.00;;;;;;5032387;28;20043;-83
2022/08/16 03:22:38;;;;;;;10.15;7.20;;;22.20;66.80;;;;;;5016429;28;20060;-84
2022/08/16 03:25:12;;;;;;;9.35;6.97;;;22.20;67.00;;;;;;5015907;28;20044;-83
2022/08/16 03:27:41;;;;;;;14.35;7.43;;;22.20;67.00;;;;;;5015783;28;20036;-80
2022/08/16 03:30:16;;;;;;;9.30;7.00;;;22.10;67.30;;;;;;5032670;28;20116;-81
2022/08/16 03:32:42;;;;;;;9.05;6.95;;;22.10;67.30;;;;;;5015499;28;20041;-83
2022/08/16 03:35:08;;;;;;;7.90;6.88;;;22.20;67.30;;;;;;5015818;28;20469;-83
2022/08/16 03:37:35;;;;;;;9.95;6.90;;;22.20;67.30;;;;;;5015829;28;20033;-88
2022/08/16 03:40:03;;;;;;;8.27;6.25;;;22.20;67.30;;;;;;5015880;28;20044;-85
2022/08/16 03:42:30;;;;;;;13.55;7.20;;;22.20;67.20;;;;;;5033549;28;20411;-87
2022/08/16 03:44:57;;;;;;;9.85;7.63;;;22.20;67.30;;;;;;5032678;28;20037;-88
2022/08/16 03:47:27;;;;;;;10.07;7.47;;;22.20;67.50;;;;;;5031290;28;20033;-87
2022/08/16 03:49:54;;;;;;;9.15;7.20;;;22.20;67.50;;;;;;5031457;28;20036;-87
2022/08/16 03:52:21;;;;;;;9.15;6.75;;;22.10;67.50;;;;;;5015201;28;20040;-87
2022/08/16 03:54:48;;;;;;;11.02;6.72;;;22.20;67.70;;;;;;5015702;28;20087;-89
2022/08/16 03:57:14;;;;;;;10.30;7.18;;;22.20;67.70;;;;;;5031696;28;20495;-88
2022/08/16 03:59:40;;;;;;;10.68;7.55;;;22.20;67.70;;;;;;5014959;28;20051;-91
2022/08/16 04:02:11;;;;;;;9.15;6.85;;;22.20;67.70;;;;;;5018463;28;20037;-91
2022/08/16 04:04:38;;;;;;;8.55;6.72;;;22.20;67.90;;;;;;5016312;28;20090;-88
2022/08/16 04:07:06;;;;;;;12.05;6.72;;;22.20;67.80;;;;;;5017825;28;20504;-90
2022/08/16 04:09:34;;;;;;;8.38;6.57;;;22.20;67.70;;;;;;5017416;28;20029;-88
2022/08/16 04:12:01;;;;;;;8.15;6.65;;;22.20;67.70;;;;;;5034590;28;20105;-94
2022/08/16 04:14:28;;;;;;;8.48;7.03;;;22.20;67.70;;;;;;5035619;28;20072;-92
2022/08/16 04:16:55;;;;;;;10.70;7.10;;;22.20;67.90;;;;;;5036644;28;20048;-88
2022/08/16 04:19:35;;;;;;;10.57;6.63;;;22.30;67.90;;;;;;5032704;28;20041;-88
2022/08/16 04:22:02;;;;;;;8.88;6.43;;;22.30;67.60;;;;;;5000200;28;20041;-90
2022/08/16 04:24:35;;;;;;;10.77;6.18;;;22.50;67.60;;;;;;5017855;28;20123;-90
2022/08/16 04:27:01;;;;;;;7.20;6.15;;;22.80;66.80;;;;;;5033808;28;20029;-84
2022/08/16 04:29:27;;;;;;;8.50;6.20;;;23.00;66.00;;;;;;5005763;28;20040;-86
2022/08/16 04:31:54;;;;;;;6.78;6.10;;;23.30;65.40;;;;;;5034647;28;20095;-85
2022/08/16 04:34:20;;;;;;;12.75;6.22;;;23.50;64.40;;;;;;5038429;28;20474;-83
2022/08/16 04:36:49;;;;;;;11.40;5.85;;;23.60;64.20;;;;;;5032840;28;20033;-87
2022/08/16 04:39:15;;;;;;;9.88;5.88;;;23.90;63.50;;;;;;5032492;28;20036;-86
2022/08/16 04:41:41;;;;;;;10.00;5.00;;;24.00;63.00;;;;;;5030895;28;20494;-86
2022/08/16 04:44:07;;;;;;;6.82;5.40;;;24.20;62.30;;;;;;5049466;28;20041;-88
2022/08/16 04:46:33;;;;;;;8.40;5.72;;;24.30;62.10;;;;;;4999396;28;20029;-88
2022/08/16 04:48:59;;;;;;;6.85;5.10;;;24.50;61.80;;;;;;4999035;28;20036;-88
2022/08/16 04:51:25;;;;;;;7.75;5.32;;;24.70;61.50;;;;;;5019497;28;20135;-88
2022/08/16 04:53:52;;;;;;;11.35;5.20;;;24.80;59.90;;;;;;4999558;28;20086;-88
2022/08/16 04:56:19;;;;;;;9.02;5.43;;;24.90;59.90;;;;;;5015997;28;20069;-88
2022/08/16 04:58:45;;;;;;;6.28;5.28;;;24.90;59.70;;;;;;5016074;28;20029;-89
2022/08/16 05:01:13;;;;;;;7.28;5.15;;;25.10;60.00;;;;;;5015385;28;20602;-89
2022/08/16 05:03:39;;;;;;;7.88;5.38;;;25.20;59.50;;;;;;5032346;28;20090;-87
2022/08/16 05:06:05;;;;;;;6.55;5.40;;;25.20;58.70;;;;;;5031520;28;20060;-88
2022/08/16 05:08:32;;;;;;;8.35;5.68;;;25.40;59.10;;;;;;5015341;28;20048;-87
2022/08/16 05:11:06;;;;;;;8.25;4.93;;;25.40;58.60;;;;;;5031478;28;20037;-88
2022/08/16 05:13:34;;;;;;;5.65;4.95;;;25.50;58.40;;;;;;5049743;28;20114;-87
2022/08/16 05:16:00;;;;;;;6.50;5.07;;;25.60;58.30;;;;;;5032129;28;20040;-88
2022/08/16 05:18:27;;;;;;;6.30;5.10;;;25.70;58.60;;;;;;5033459;28;20423;-90
2022/08/16 05:20:55;;;;;;;9.07;4.90;;;25.80;57.80;;;;;;5016293;28;20104;-89
2022/08/16 05:23:21;;;;;;;7.68;5.55;;;25.90;57.60;;;;;;5032773;28;20426;-90
2022/08/16 05:25:48;;;;;;;8.95;5.35;;;26.00;57.50;;;;;;5032664;28;20048;-89
2022/08/16 05:28:17;;;;;;;7.60;5.55;;;26.00;57.20;;;;;;5016498;28;20047;-88
2022/08/16 05:30:50;;;;;;;7.70;5.15;;;26.10;57.50;;;;;;5034661;28;20133;-89
2022/08/16 05:33:24;;;;;;;5.82;5.13;;;26.10;57.40;;;;;;5036671;28;20040;-89
2022/08/16 05:35:51;;;;;;;7.20;5.45;;;26.20;57.30;;;;;;5019695;28;20044;-91
2022/08/16 05:38:31;;;;;;;6.43;4.55;;;26.30;57.20;;;;;;5035872;28;20094;-90
2022/08/16 05:41:01;;;;;;;8.52;4.90;;;26.40;56.70;;;;;;5036190;28;20520;-91
2022/08/16 05:43:34;;;;;;;8.68;4.75;;;26.60;56.80;;;;;;5020324;28;20041;-90
2022/08/16 05:46:00;;;;;;;8.07;4.90;;;26.70;56.20;;;;;;5036496;28;20069;-90
2022/08/16 05:48:26;;;;;;;6.10;4.47;;;26.90;55.90;;;;;;5055591;28;20032;-88
2022/08/16 05:51:00;;;;;;;6.78;5.30;;;26.90;55.60;;;;;;5035569;28;20545;-89
2022/08/16 05:53:27;;;;;;;8.15;4.60;;;27.10;55.10;;;;;;5020962;28;20399;-89
2022/08/16 05:56:09;;;;;;;8.40;5.00;;;27.30;54.70;;;;;;5036845;28;20037;-90
2022/08/16 05:58:38;;;;;;;6.50;4.93;;;27.50;54.50;;;;;;5035852;28;20523;-90
2022/08/16 06:01:06;;;;;;;10.52;5.35;;;27.70;54.00;;;;;;5037025;28;20029;-92
2022/08/16 06:03:34;;;;;;;11.27;4.82;;;27.80;53.50;;;;;;5035413;28;20033;-85
2022/08/16 06:06:01;;;;;;;8.75;4.28;;;27.80;53.80;;;;;;5034385;28;20044;-88
2022/08/16 06:08:30;;;;;;;10.27;4.50;;;27.80;53.10;;;;;;5018726;28;20037;-87
2022/08/16 06:11:00;;;;;;;5.28;4.22;;;27.80;53.30;;;;;;5018142;28;20102;-89
2022/08/16 06:13:26;;;;;;;4.95;4.22;;;27.90;53.70;;;;;;5052521;28;20037;-87
2022/08/16 06:15:53;;;;;;;6.28;4.20;;;27.80;53.20;;;;;;5018436;28;20040;-86
2022/08/16 06:18:19;;;;;;;6.50;4.20;;;27.80;53.60;;;;;;5034480;28;20041;-85
2022/08/16 06:20:47;;;;;;;6.07;3.92;;;27.80;53.20;;;;;;5017744;28;20079;-87
2022/08/16 06:23:17;;;;;;;6.90;4.55;;;27.80;53.50;;;;;;5034137;28;20052;-86
2022/08/16 06:26:07;;;;;;;6.50;4.50;;;27.90;53.40;;;;;;5027291;28;20041;-89
2022/08/16 06:28:35;;;;;;;12.75;4.45;;;27.90;53.40;;;;;;5028720;28;20452;-86
2022/08/16 06:31:02;;;;;;;10.13;4.25;;;27.90;52.30;;;;;;5009375;28;20215;-86
2022/08/16 06:33:30;;;;;;;5.85;4.10;;;27.90;52.70;;;;;;5040848;28;20033;-89
2022/08/16 06:35:56;;;;;;;5.22;4.10;;;28.00;52.60;;;;;;5019388;28;20399;-89
2022/08/16 06:38:23;;;;;;;5.05;3.97;;;28.10;52.70;;;;;;5001425;28;20100;-87
2022/08/16 06:40:50;;;;;;;7.00;4.00;;;28.20;52.90;;;;;;5033544;28;20037;-87
2022/08/16 06:43:18;;;;;;;9.43;4.25;;;28.20;52.90;;;;;;5033510;28;20478;-88
2022/08/16 06:45:54;;;;;;;5.03;3.40;;;28.30;52.70;;;;;;5016800;28;20495;-87
2022/08/16 06:48:26;;;;;;;6.30;3.80;;;28.50;52.70;;;;;;5018252;28;20056;-87
2022/08/16 06:50:53;;;;;;;6.25;3.92;;;28.60;52.00;;;;;;5033960;28;20033;-88
2022/08/16 06:53:20;;;;;;;7.93;3.30;;;28.60;51.60;;;;;;5017359;28;20491;-88
2022/08/16 06:55:58;;;;;;;4.60;3.70;;;28.60;51.40;;;;;;5002274;28;20131;-87
2022/08/16 06:58:28;;;;;;;7.00;4.38;;;28.60;51.70;;;;;;5016948;28;20037;-88
2022/08/16 07:01:01;;;;;;;8.45;3.53;;;28.60;50.30;;;;;;5016881;28;20036;-85
2022/08/16 07:03:30;;;;;;;10.05;3.50;;;28.70;51.20;;;;;;5032843;28;20037;-81
2022/08/16 07:05:57;;;;;;;4.28;3.70;;;28.80;52.20;;;;;;5032560;28;20041;-83
2022/08/16 07:08:41;;;;;;;7.70;3.50;;;28.80;52.90;;;;;;5034177;28;20040;-84
2022/08/16 07:11:08;;;;;;;6.40;3.40;;;28.80;51.60;;;;;;5035532;28;20499;-84
2022/08/16 07:13:35;;;;;;;9.95;3.63;;;28.80;51.20;;;;;;5032378;28;20032;-85
2022/08/16 07:16:04;;;;;;;10.30;3.53;;;28.80;49.60;;;;;;5032336;28;20045;-81
2022/08/16 07:18:31;;;;;;;6.40;3.00;;;28.70;49.00;;;;;;5032615;28;20118;-83
2022/08/16 07:20:58;;;;;;;4.32;2.70;;;28.70;49.20;;;;;;5015545;28;20423;-84
2022/08/16 07:23:25;;;;;;;7.95;3.03;;;28.60;48.80;;;;;;5032556;28;20525;-86
2022/08/16 07:25:55;;;;;;;6.05;3.33;;;28.50;48.50;;;;;;5031584;28;20068;-82
2022/08/16 07:28:22;;;;;;;3.92;2.83;;;28.60;48.90;;;;;;5016308;28;20487;-85
2022/08/16 07:30:49;;;;;;;6.57;3.15;;;28.50;49.20;;;;;;5031867;28;20132;-84
2022/08/16 07:33:43;;;;;;;6.38;3.25;;;28.40;49.10;;;;;;5047116;28;20057;-83
2022/08/16 07:36:10;;;;;;;3.42;2.83;;;28.40;49.20;;;;;;5015609;28;20404;-85
2022/08/16 07:38:42;;;;;;;5.57;2.90;;;28.40;49.50;;;;;;5032041;28;20032;-83
2022/08/16 07:41:09;;;;;;;4.95;2.60;;;28.50;49.40;;;;;;5015546;28;20033;-86
2022/08/16 07:43:36;;;;;;;4.10;2.80;;;28.50;49.20;;;;;;5015267;28;20063;-85
2022/08/16 07:46:05;;;;;;;5.45;3.50;;;28.50;49.40;;;;;;5031432;28;20511;-84
2022/08/16 07:48:37;;;;;;;7.32;3.55;;;28.50;49.40;;;;;;5032347;28;20373;-84
2022/08/16 07:51:04;;;;;;;4.18;3.10;;;28.40;49.30;;;;;;5032032;28;20045;-83
2022/08/16 07:53:33;;;;;;;5.97;3.20;;;28.40;49.70;;;;;;5031660;28;20426;-88
2022/08/16 07:56:01;;;;;;;4.47;3.13;;;28.30;48.70;;;;;;5015913;28;20037;-88
2022/08/16 07:58:34;;;;;;;5.80;3.65;;;28.10;48.90;;;;;;5017019;28;20044;-85
2022/08/16 08:01:04;;;;;;;5.97;3.25;;;28.10;49.50;;;;;;5033384;28;20175;-84
2022/08/16 08:03:31;;;;;;;4.30;2.75;;;28.00;49.50;;;;;;5033817;28;20521;-86
2022/08/16 08:05:57;;;;;;;5.05;3.45;;;28.10;50.90;;;;;;5016339;28;20037;-84
2022/08/16 08:08:24;;;;;;;5.13;3.55;;;28.20;50.70;;;;;;5033102;28;20064;-84
2022/08/16 08:10:50;;;;;;;3.45;3.15;;;28.20;50.80;;;;;;5032793;28;20060;-84
2022/08/16 08:13:16;;;;;;;6.07;3.13;;;28.30;50.90;;;;;;5031836;28;20045;-87
2022/08/16 08:15:44;;;;;;;6.65;3.20;;;28.30;50.80;;;;;;5032060;28;20090;-84
2022/08/16 08:18:11;;;;;;;5.70;3.30;;;28.30;50.20;;;;;;5016582;28;20025;-85
2022/08/16 08:20:42;;;;;;;6.50;3.10;;;28.30;50.20;;;;;;5033012;28;20466;-85
2022/08/16 08:23:07;;;;;;;4.30;3.40;;;28.30;50.60;;;;;;5016570;28;20095;-85
2022/08/16 08:25:40;;;;;;;3.50;3.20;;;28.40;51.30;;;;;;5007105;28;20090;-84
2022/08/16 08:28:06;;;;;;;5.43;3.10;;;28.40;51.40;;;;;;5036280;28;20033;-84
2022/08/16 08:30:33;;;;;;;5.22;3.30;;;28.30;50.00;;;;;;5016557;28;20037;-84
2022/08/16 08:32:59;;;;;;;4.97;3.20;;;28.30;50.70;;;;;;5019612;28;20037;-92
2022/08/16 08:35:27;;;;;;;5.70;3.45;;;28.30;50.70;;;;;;5021427;28;20036;-90
2022/08/16 08:37:54;;;;;;;4.35;3.45;;;28.20;50.50;;;;;;5034002;28;20037;-90
2022/08/16 08:40:22;;;;;;;3.90;3.38;;;28.20;50.30;;;;;;5035259;28;20025;-90
2022/08/16 08:42:50;;;;;;;7.03;3.50;;;28.20;50.90;;;;;;5036139;28;20048;-92
2022/08/16 08:45:17;;;;;;;7.60;3.50;;;28.10;50.70;;;;;;5027303;28;20037;-93
2022/08/16 08:47:47;;;;;;;6.50;3.55;;;28.10;50.50;;;;;;5034436;28;20045;-89
2022/08/16 08:50:16;;;;;;;3.70;3.40;;;28.00;50.70;;;;;;5035201;28;20040;-90
2022/08/16 08:52:44;;;;;;;5.35;3.50;;;28.00;51.40;;;;;;5026345;28;20047;-88
2022/08/16 08:55:13;;;;;;;6.22;3.60;;;28.10;51.70;;;;;;5043142;28;20025;-94
2022/08/16 08:57:44;;;;;;;6.70;3.30;;;28.00;51.10;;;;;;5035402;28;20032;-90
2022/08/16 09:00:33;;;;;;;5.03;3.28;;;28.00;50.90;;;;;;5036057;28;20045;-92
2022/08/16 09:03:03;;;;;;;5.43;3.40;;;28.00;50.80;;;;;;5037355;28;20029;-92
2022/08/16 09:05:29;;;;;;;5.15;3.42;;;28.00;50.60;;;;;;5040535;28;20041;-88
2022/08/16 09:07:55;;;;;;;5.95;2.95;;;28.00;50.50;;;;;;5042594;28;20044;-89
2022/08/16 09:10:31;;;;;;;7.53;3.38;;;28.00;50.90;;;;;;5050573;28;20495;-87
2022/08/16 09:12:58;;;;;;;5.47;3.10;;;27.90;50.50;;;;;;5039650;28;20112;-83
2022/08/16 09:15:36;;;;;;;5.03;3.15;;;28.00;51.30;;;;;;5058727;28;20021;-85
2022/08/16 09:18:04;;;;;;;6.50;3.17;;;28.00;50.20;;;;;;5058377;28;20045;-86
2022/08/16 09:20:34;;;;;;;3.17;2.92;;;27.90;49.80;;;;;;5039186;28;20051;-84
2022/08/16 09:23:01;;;;;;;3.63;2.90;;;28.00;50.70;;;;;;5046438;28;20041;-88
2022/08/16 09:25:37;;;;;;;4.35;3.25;;;28.00;50.90;;;;;;5038386;28;20041;-90
2022/08/16 09:28:07;;;;;;;6.63;3.63;;;28.00;51.70;;;;;;5044793;28;20132;-91
2022/08/16 09:30:34;;;;;;;9.57;4.13;;;28.00;51.50;;;;;;5043743;28;20114;-89
2022/08/16 09:33:01;;;;;;;8.60;3.72;;;28.00;50.60;;;;;;5020757;28;20503;-90
2022/08/16 09:35:27;;;;;;;5.15;3.67;;;28.00;50.00;;;;;;5034749;28;20064;-90
2022/08/16 09:37:55;;;;;;;10.48;3.67;;;27.90;50.10;;;;;;5018435;28;20128;-88
2022/08/16 09:40:22;;;;;;;6.38;3.40;;;27.90;49.90;;;;;;5019075;28;20036;-89
2022/08/16 09:42:49;;;;;;;5.45;3.05;;;27.80;51.00;;;;;;5021130;28;20025;-88
2022/08/16 09:45:15;;;;;;;5.65;3.55;;;27.80;50.70;;;;;;5019390;28;20132;-89
2022/08/16 09:47:41;;;;;;;6.80;3.85;;;27.80;50.20;;;;;;5053370;28;20120;-92
2022/08/16 09:50:10;;;;;;;4.03;3.30;;;27.80;51.00;;;;;;5002530;28;20105;-88
2022/08/16 09:52:36;;;;;;;9.38;3.60;;;27.80;50.50;;;;;;5054279;28;20128;-88
2022/08/16 09:55:10;;;;;;;4.82;3.28;;;27.90;50.60;;;;;;5055109;28;20045;-90
2022/08/16 09:57:36;;;;;;;3.80;3.30;;;27.90;51.20;;;;;;5018782;28;20040;-84
2022/08/16 10:00:09;;;;;;;6.22;3.35;;;27.90;50.20;;;;;;5017970;28;20029;-84
2022/08/16 10:02:40;;;;;;;3.10;2.85;;;27.80;50.10;;;;;;5018202;28;20492;-87
2022/08/16 10:05:06;;;;;;;5.28;3.10;;;27.80;49.80;;;;;;5052371;28;20503;-87
2022/08/16 10:07:33;;;;;;;3.67;3.22;;;27.80;50.20;;;;;;5017310;28;20033;-86
2022/08/16 10:09:59;;;;;;;5.13;2.70;;;27.80;51.10;;;;;;5017009;28;20074;-79
2022/08/16 10:15:16;;;;;;;6.47;3.40;;;27.90;50.90;;;;;;5051398;28;20492;-82
2022/08/16 10:17:44;;;;;;;7.55;3.45;;;28.00;50.40;;;;;;5051444;28;20041;-86
2022/08/16 10:20:10;;;;;;;3.75;3.17;;;28.00;50.30;;;;;;5018111;28;20033;-88
2022/08/16 10:22:37;;;;;;;4.93;2.97;;;28.10;50.30;;;;;;5034040;28;20071;-89
2022/08/16 10:25:05;;;;;;;4.95;3.33;;;28.20;51.00;;;;;;5033533;28;20175;-81
2022/08/16 10:27:33;;;;;;;6.38;3.40;;;28.20;50.00;;;;;;5034231;28;20041;-84
2022/08/16 10:30:01;;;;;;;4.70;3.10;;;28.20;50.00;;;;;;5016180;28;20041;-82
2022/08/16 10:32:27;;;;;;;4.90;3.25;;;28.20;50.30;;;;;;5051701;28;20045;-89
2022/08/16 10:34:53;;;;;;;4.30;3.17;;;28.20;50.20;;;;;;5034364;28;20034;-90
2022/08/16 10:37:19;;;;;;;5.50;3.42;;;28.10;49.60;;;;;;5019465;28;20040;-89
2022/08/16 10:39:45;;;;;;;3.95;3.50;;;28.10;49.70;;;;;;5035297;28;20028;-89
2022/08/16 10:42:11;;;;;;;6.30;3.65;;;28.10;50.10;;;;;;5018579;28;20029;-89
2022/08/16 10:44:37;;;;;;;3.35;3.05;;;28.10;49.70;;;;;;5034407;28;20447;-89
2022/08/16 10:47:04;;;;;;;5.22;3.30;;;28.00;50.10;;;;;;5034765;28;20033;-91
2022/08/16 10:49:31;;;;;;;7.65;3.22;;;28.00;49.60;;;;;;5035448;28;20052;-89
2022/08/16 10:51:57;;;;;;;5.00;3.33;;;28.00;49.40;;;;;;5035949;28;20037;-89
2022/08/16 10:54:23;;;;;;;3.78;3.17;;;27.90;50.10;;;;;;5037321;28;20070;-90
2022/08/16 10:56:49;;;;;;;5.97;3.20;;;27.90;49.90;;;;;;5019651;28;20079;-90
2022/08/16 10:59:15;;;;;;;4.05;3.42;;;27.90;49.70;;;;;;5016388;28;20447;-89
2022/08/16 11:01:41;;;;;;;3.78;3.47;;;27.90;50.40;;;;;;5056603;28;20029;-91
2022/08/16 11:04:07;;;;;;;5.22;3.38;;;27.90;50.50;;;;;;5048700;28;20040;-89
2022/08/16 11:06:33;;;;;;;5.38;3.33;;;27.90;50.30;;;;;;5053563;28;20048;-86
2022/08/16 11:08:59;;;;;;;5.15;3.47;;;27.80;49.30;;;;;;5045925;28;20037;-88
2022/08/16 11:11:25;;;;;;;3.97;3.20;;;27.80;49.90;;;;;;5040427;28;20037;-87
2022/08/16 11:13:51;;;;;;;6.30;3.50;;;27.80;50.20;;;;;;5045337;28;20037;-87
2022/08/16 11:16:19;;;;;;;5.45;3.10;;;27.70;50.10;;;;;;5029990;28;20048;-87
2022/08/16 11:18:45;;;;;;;4.35;3.45;;;27.70;50.10;;;;;;5052386;28;20093;-84
2022/08/16 11:21:13;;;;;;;3.53;3.17;;;27.70;50.20;;;;;;5061049;28;20287;-87
2022/08/16 11:23:40;;;;;;;4.57;3.25;;;27.70;50.40;;;;;;5018725;28;20033;-89
2022/08/16 11:26:06;;;;;;;6.63;3.22;;;27.70;49.90;;;;;;5034678;28;20442;-89
2022/08/16 11:28:34;;;;;;;5.43;3.70;;;27.80;50.10;;;;;;5033151;28;20037;-87
2022/08/16 11:31:01;;;;;;;3.60;3.30;;;27.70;49.90;;;;;;5016575;28;20033;-90
2022/08/16 11:33:27;;;;;;;4.18;3.30;;;27.70;49.90;;;;;;5034105;28;20051;-90
2022/08/16 11:35:53;;;;;;;3.78;3.40;;;27.80;50.10;;;;;;5016299;28;20523;-86
2022/08/16 11:38:21;;;;;;;4.57;3.35;;;27.70;49.70;;;;;;5016491;28;20132;-90
2022/08/16 11:40:59;;;;;;;5.93;3.40;;;27.70;49.70;;;;;;5032952;28;20056;-88
2022/08/16 11:43:29;;;;;;;3.72;3.42;;;27.60;48.80;;;;;;5033424;28;20031;-90
2022/08/16 11:45:57;;;;;;;4.88;3.60;;;27.70;49.30;;;;;;5032501;28;20037;-91
2022/08/16 11:48:28;;;;;;;5.15;3.20;;;27.60;48.80;;;;;;5033974;28;20067;-90
2022/08/16 11:50:56;;;;;;;4.65;3.53;;;27.70;48.40;;;;;;5050543;28;20048;-88
2022/08/16 11:53:23;;;;;;;3.67;3.08;;;27.70;48.60;;;;;;5016622;28;20037;-89
2022/08/16 11:55:52;;;;;;;5.28;3.53;;;27.70;48.80;;;;;;5020433;28;20625;-91
2022/08/16 11:58:18;;;;;;;3.70;3.40;;;27.70;48.70;;;;;;5054056;28;20037;-88
2022/08/16 12:00:45;;;;;;;3.58;3.28;;;27.70;48.70;;;;;;5019993;28;20419;-89
2022/08/16 12:03:12;;;;;;;6.43;3.40;;;27.80;49.30;;;;;;5020208;28;20453;-89
2022/08/16 12:05:41;;;;;;;3.33;3.03;;;27.80;48.60;;;;;;5017788;28;20041;-89
2022/08/16 12:08:07;;;;;;;5.30;3.30;;;27.80;48.70;;;;;;5033457;28;20060;-92
2022/08/16 12:10:34;;;;;;;4.22;3.15;;;27.80;48.70;;;;;;5016466;28;20036;-89
2022/08/16 12:13:01;;;;;;;4.38;3.35;;;27.80;48.70;;;;;;5016351;28;20542;-89
2022/08/16 12:15:27;;;;;;;5.78;3.58;;;27.80;48.80;;;;;;5033869;28;20048;-91
2022/08/16 12:17:54;;;;;;;5.00;3.17;;;27.80;48.90;;;;;;5016494;28;20056;-91
2022/08/16 12:20:28;;;;;;;6.20;3.78;;;27.80;48.80;;;;;;5016294;28;20041;-90
2022/08/16 12:22:55;;;;;;;6.82;3.42;;;27.80;48.90;;;;;;5032672;28;20041;-89
2022/08/16 12:25:23;;;;;;;5.97;3.50;;;27.90;48.60;;;;;;5032350;28;20052;-91
2022/08/16 12:27:50;;;;;;;5.35;3.90;;;27.90;49.00;;;;;;5032159;28;20041;-90
2022/08/16 12:30:24;;;;;;;4.10;3.70;;;27.90;49.30;;;;;;5000516;28;20450;-89
2022/08/16 12:32:50;;;;;;;5.68;3.50;;;27.90;49.40;;;;;;5032876;28;20037;-89
2022/08/16 12:35:20;;;;;;;3.63;3.33;;;27.90;49.60;;;;;;5033558;28;20504;-88
2022/08/16 12:37:48;;;;;;;4.88;3.67;;;27.90;49.10;;;;;;5016994;28;20090;-90
2022/08/16 12:40:19;;;;;;;5.93;3.45;;;27.90;49.20;;;;;;5036386;28;20041;-86
2022/08/16 12:42:45;;;;;;;3.42;3.10;;;28.00;50.00;;;;;;5037248;28;20041;-88
2022/08/16 12:45:14;;;;;;;4.88;3.65;;;27.90;51.50;;;;;;5036391;28;20458;-83
2022/08/16 12:50:25;;;;;;;5.32;3.90;;;28.00;50.90;;;;;;5037912;28;20058;-84
2022/08/16 12:52:51;;;;;;;4.50;3.30;;;28.00;51.70;;;;;;5058568;28;20041;-82
2022/08/16 12:55:18;;;;;;;4.50;3.65;;;27.90;49.80;;;;;;5055222;28;20577;-84
2022/08/16 12:57:44;;;;;;;5.15;3.35;;;28.00;49.90;;;;;;5038236;28;20052;-83